Time;durP1;ratioP1;P1;durP2;ratioP2;P2;SDS_P1;SDS_P2;PMS_P1;PMS_P2;Temp;Humidity;BMP_temperature;BMP_pressure;BME280_temperature;BME280_humidity;BME280_pressure;Samples;Min_cycle;Max_cycle;Signal;HPM_P1;HPM_P2
2023/02/19 00:01:15;;;;;;;4.07;2.50;;;;;;;14.82;54.08;97972.81;5003685;28;20435;-70
2023/02/19 00:03:42;;;;;;;2.80;2.20;;;;;;;14.80;54.13;97976.63;4993516;28;20180;-70
2023/02/19 00:06:09;;;;;;;2.50;2.30;;;;;;;14.81;54.07;97963.25;5004029;28;20931;-69
2023/02/19 00:08:36;;;;;;;2.80;2.60;;;;;;;14.87;53.60;97967.06;5000350;28;20805;-70
2023/02/19 00:11:04;;;;;;;3.40;3.03;;;;;;;14.89;53.51;97962.44;5005406;28;20423;-70
2023/02/19 00:13:30;;;;;;;3.30;2.40;;;;;;;14.89;53.71;97968.53;5006758;28;20431;-69
2023/02/19 00:15:55;;;;;;;6.20;2.50;;;;;;;14.87;53.70;97965.22;5003227;28;20446;-70
2023/02/19 00:18:21;;;;;;;2.90;2.47;;;;;;;14.89;53.33;97963.25;5000891;28;20206;-70
2023/02/19 00:20:47;;;;;;;3.23;2.30;;;;;;;14.82;53.33;97962.28;5000612;28;20188;-69
2023/02/19 00:23:12;;;;;;;3.53;2.23;;;;;;;14.72;53.55;97964.22;4999600;28;20580;-69
2023/02/19 00:25:38;;;;;;;2.40;1.93;;;;;;;14.62;53.67;97963.50;5000474;28;20187;-70
2023/02/19 00:28:03;;;;;;;2.40;2.00;;;;;;;14.65;53.54;97958.72;5004612;28;20823;-69
2023/02/19 00:30:29;;;;;;;3.70;2.13;;;;;;;14.69;53.44;97962.72;5003460;28;20724;-70
2023/02/19 00:32:54;;;;;;;2.63;2.20;;;;;;;14.29;54.19;97957.09;5010130;28;20195;-71
2023/02/19 00:35:20;;;;;;;3.23;2.37;;;;;;;14.49;54.09;97956.84;5004618;28;20184;-70
2023/02/19 00:37:46;;;;;;;2.17;1.97;;;;;;;14.58;53.86;97958.53;4996474;28;20185;-69
2023/02/19 00:40:11;;;;;;;2.50;2.30;;;;;;;14.56;54.11;97967.56;5009082;28;20439;-69
2023/02/19 00:42:37;;;;;;;3.10;2.47;;;;;;;14.47;54.13;97964.09;5008451;28;20192;-70
2023/02/19 00:45:02;;;;;;;4.20;1.83;;;;;;;14.52;54.09;97969.72;4996925;28;20556;-70
2023/02/19 00:47:28;;;;;;;2.47;2.27;;;;;;;14.45;54.13;97968.72;5007700;28;20871;-69
2023/02/19 00:49:53;;;;;;;2.30;1.80;;;;;;;14.50;53.64;97969.03;5002710;28;20201;-69
2023/02/19 00:52:19;;;;;;;2.63;1.90;;;;;;;14.43;54.26;97973.31;5009394;28;20192;-69
2023/02/19 00:54:44;;;;;;;1.93;1.83;;;;;;;14.44;54.40;97962.59;5003786;28;20228;-69
2023/02/19 00:57:09;;;;;;;2.60;1.90;;;;;;;14.32;54.79;97979.66;5006673;28;20220;-69
2023/02/19 00:59:35;;;;;;;1.73;1.63;;;;;;;14.28;55.02;97968.63;5008222;28;20207;-69
2023/02/19 01:02:01;;;;;;;2.00;1.90;;;;;;;14.31;54.52;97956.91;5001192;28;20231;-69
2023/02/19 01:04:27;;;;;;;1.87;1.73;;;;;;;14.41;54.71;97948.91;5009693;28;20193;-69
2023/02/19 01:06:52;;;;;;;3.17;2.30;;;;;;;14.44;54.75;97945.94;5002616;28;20177;-69
2023/02/19 01:09:18;;;;;;;2.87;2.27;;;;;;;14.43;54.70;97952.22;5008942;28;20330;-69
2023/02/19 01:11:43;;;;;;;4.90;1.80;;;;;;;14.44;54.36;97944.13;5003736;28;20181;-69
2023/02/19 01:14:09;;;;;;;2.60;2.03;;;;;;;14.41;54.39;97946.25;5008704;28;20783;-69
2023/02/19 01:16:35;;;;;;;2.50;2.07;;;;;;;14.34;54.80;97942.63;5007746;28;20195;-69
2023/02/19 01:19:00;;;;;;;2.30;1.90;;;;;;;14.30;54.50;97926.28;5000670;28;21082;-68
2023/02/19 01:21:27;;;;;;;2.13;2.00;;;;;;;14.24;54.60;97935.63;5000329;28;20200;-68
2023/02/19 01:23:53;;;;;;;2.80;2.23;;;;;;;14.32;54.68;97934.84;4997302;28;20189;-68
2023/02/19 01:26:24;;;;;;;5.23;3.00;;;;;;;14.27;54.41;97937.97;4989429;28;20427;-68
2023/02/19 01:28:50;;;;;;;2.53;1.77;;;;;;;14.30;54.44;97934.22;5004281;28;20844;-69
2023/02/19 01:31:20;;;;;;;2.30;1.80;;;;;;;14.28;54.31;97938.81;5008891;28;20431;-69
2023/02/19 01:33:51;;;;;;;2.40;1.87;;;;;;;14.02;54.85;97928.28;4988868;28;20419;-68
2023/02/19 01:36:16;;;;;;;3.47;2.20;;;;;;;14.24;54.49;97927.72;4991318;28;20420;-68
2023/02/19 01:38:42;;;;;;;1.90;1.70;;;;;;;14.16;54.78;97926.88;5003480;28;20442;-69
2023/02/19 01:41:10;;;;;;;3.00;2.70;;;;;;;14.33;54.82;97923.31;5007381;28;20185;-68
2023/02/19 01:44:06;;;;;;;2.00;1.87;;;;;;;14.22;55.10;97924.44;5001338;28;20180;-69
2023/02/19 01:46:37;;;;;;;2.10;1.90;;;;;;;14.23;54.96;97928.75;5000759;28;20420;-69
2023/02/19 01:49:08;;;;;;;2.40;2.20;;;;;;;14.16;55.09;97925.06;5005958;28;20471;-69
2023/02/19 01:51:35;;;;;;;2.00;1.90;;;;;;;14.23;55.12;97928.75;5002585;28;20428;-69
2023/02/19 01:54:03;;;;;;;3.60;2.20;;;;;;;14.20;54.92;97931.69;4990232;28;20978;-69
2023/02/19 01:56:29;;;;;;;2.33;2.10;;;;;;;14.22;54.81;97936.78;5003853;28;20854;-69
2023/02/19 01:58:55;;;;;;;1.63;1.53;;;;;;;14.17;55.00;97932.00;5007651;28;20443;-68
2023/02/19 02:01:20;;;;;;;1.97;1.73;;;;;;;14.19;54.83;97923.91;4970194;28;20493;-68
2023/02/19 02:03:47;;;;;;;1.77;1.67;;;;;;;14.19;54.77;97916.84;4969277;28;20192;-69
2023/02/19 02:06:22;;;;;;;2.00;1.80;;;;;;;14.08;54.95;97917.13;4986949;28;20192;-68
2023/02/19 02:11:39;;;;;;;2.20;2.00;;;;;;;14.05;55.27;97927.97;4998011;28;20462;-70
2023/02/19 02:14:05;;;;;;;2.50;1.87;;;;;;;13.93;55.45;97925.59;4987004;28;20431;-69
2023/02/19 02:16:49;;;;;;;2.00;1.80;;;;;;;14.05;55.29;97927.97;5006411;28;20416;-69
2023/02/19 02:19:30;;;;;;;3.30;2.23;;;;;;;14.00;55.49;97915.28;5000528;28;20632;-69
2023/02/19 02:22:06;;;;;;;2.43;1.77;;;;;;;13.96;55.25;97914.75;4988131;28;20440;-69
2023/02/19 02:24:59;;;;;;;2.03;1.93;;;;;;;13.94;55.59;97918.53;4986275;28;20423;-68
2023/02/19 02:27:43;;;;;;;4.03;2.03;;;;;;;14.06;55.40;97912.00;4997135;28;20974;-69
2023/02/19 02:30:09;;;;;;;2.33;1.67;;;;;;;13.98;56.00;97906.69;5003696;28;20534;-69
2023/02/19 02:32:39;;;;;;;2.13;1.77;;;;;;;13.95;55.66;97899.94;5007822;28;20910;-70
2023/02/19 02:35:08;;;;;;;2.20;1.90;;;;;;;14.00;55.41;97896.81;4988005;28;20279;-70
2023/02/19 02:37:36;;;;;;;1.97;1.77;;;;;;;14.05;55.74;97901.63;4979379;28;20685;-69
2023/02/19 02:40:03;;;;;;;3.33;2.10;;;;;;;14.01;56.26;97895.00;4988618;28;20451;-70
2023/02/19 02:42:29;;;;;;;2.27;2.00;;;;;;;13.86;56.85;97892.13;5002210;28;20430;-69
2023/02/19 02:47:50;;;;;;;2.40;2.20;;;;;;;13.82;56.69;97886.34;4990386;28;20571;-69
2023/02/19 02:50:22;;;;;;;3.57;2.30;;;;;;;13.78;56.79;97887.63;4983384;28;20448;-69
2023/02/19 02:55:39;;;;;;;2.33;1.90;;;;;;;13.59;57.43;97886.88;4981746;28;20842;-69
2023/02/19 02:58:06;;;;;;;2.07;1.93;;;;;;;13.54;57.51;97886.50;5001646;28;21200;-68
2023/02/19 03:03:19;;;;;;;3.00;1.70;;;;;;;13.73;56.88;97892.56;4986481;28;20995;-68
2023/02/19 03:05:50;;;;;;;4.20;2.10;;;;;;;13.67;56.97;97889.56;4989119;28;20439;-68
2023/02/19 03:08:56;;;;;;;2.30;2.10;;;;;;;13.78;56.96;97885.00;4979425;28;20460;-69
2023/02/19 03:20:05;;;;;;;1.70;1.60;;;;;;;13.80;57.66;97885.69;4994758;28;20444;-69
2023/02/19 03:22:33;;;;;;;2.13;2.03;;;;;;;13.75;58.21;97880.03;5002677;28;20443;-69
2023/02/19 03:27:59;;;;;;;4.07;1.73;;;;;;;13.51;59.46;97879.75;4981596;28;20483;-68
2023/02/19 03:30:30;;;;;;;1.73;1.63;;;;;;;13.62;59.54;97880.47;4986256;28;20448;-69
2023/02/19 03:33:11;;;;;;;2.13;1.50;;;;;;;13.54;59.50;97875.97;5008957;28;20419;-69
2023/02/19 03:35:46;;;;;;;2.33;1.87;;;;;;;13.56;59.41;97887.19;4989026;28;20474;-70
2023/02/19 03:38:25;;;;;;;1.73;1.63;;;;;;;13.62;59.09;97873.38;4977465;28;20421;-69
2023/02/19 03:41:08;;;;;;;2.47;2.00;;;;;;;13.62;59.14;97876.03;4988396;28;20796;-68
2023/02/19 03:43:55;;;;;;;2.23;1.80;;;;;;;13.52;59.56;97875.31;4982021;28;20415;-69
2023/02/19 03:46:32;;;;;;;1.73;1.60;;;;;;;13.56;59.68;97876.66;5003696;28;20477;-68
2023/02/19 03:49:01;;;;;;;1.60;1.50;;;;;;;13.61;59.37;97884.91;4976170;28;20591;-68
2023/02/19 03:52:00;;;;;;;1.80;1.30;;;;;;;13.57;59.71;97883.56;4989078;28;20427;-67
2023/02/19 03:54:38;;;;;;;1.50;1.30;;;;;;;13.58;59.68;97879.97;4988136;28;20932;-69
2023/02/19 03:57:10;;;;;;;1.50;1.40;;;;;;;13.55;59.69;97888.16;4987233;28;20428;-68
2023/02/19 03:59:50;;;;;;;1.53;1.40;;;;;;;13.47;60.08;97885.50;4995728;28;20472;-68
2023/02/19 04:02:23;;;;;;;1.40;1.30;;;;;;;13.42;59.97;97885.13;4988204;28;20432;-68
2023/02/19 04:04:53;;;;;;;2.00;1.40;;;;;;;13.45;60.12;97885.63;5004101;28;20423;-68
2023/02/19 04:07:20;;;;;;;2.03;1.30;;;;;;;13.43;59.93;97887.59;4981282;28;20459;-68
2023/02/19 04:09:48;;;;;;;2.00;1.10;;;;;;;13.34;60.13;97897.22;4982667;28;20436;-68
2023/02/19 04:12:14;;;;;;;1.27;1.17;;;;;;;13.26;59.83;97896.31;4980975;28;20420;-69
2023/02/19 04:14:44;;;;;;;1.20;1.10;;;;;;;13.43;60.00;97905.19;4986388;28;20431;-70
2023/02/19 04:17:19;;;;;;;1.33;1.23;;;;;;;13.50;59.50;97893.06;5002800;28;20456;-69
2023/02/19 04:19:45;;;;;;;1.73;1.07;;;;;;;13.53;59.81;97903.28;5000499;28;20447;-69
2023/02/19 04:22:11;;;;;;;1.63;0.90;;;;;;;13.49;59.48;97912.47;5004302;28;20977;-70
2023/02/19 04:24:40;;;;;;;3.73;1.23;;;;;;;13.50;59.93;97914.13;4977855;28;20416;-69
2023/02/19 04:27:06;;;;;;;1.17;1.00;;;;;;;13.46;59.37;97913.63;4974555;28;20235;-69
2023/02/19 04:29:31;;;;;;;1.33;0.90;;;;;;;13.46;59.36;97912.78;4983942;28;20459;-69
2023/02/19 04:31:56;;;;;;;2.20;0.90;;;;;;;13.45;59.71;97911.97;5006073;28;20180;-69
2023/02/19 04:34:22;;;;;;;1.00;0.87;;;;;;;13.44;59.60;97920.84;4965346;28;20888;-69
2023/02/19 04:36:47;;;;;;;0.90;0.70;;;;;;;13.46;59.08;97924.16;4986108;28;20610;-68
2023/02/19 04:39:13;;;;;;;0.93;0.73;;;;;;;13.48;59.53;97932.72;5001634;28;20204;-69
2023/02/19 04:41:38;;;;;;;1.10;0.90;;;;;;;13.47;59.32;97930.25;4999544;28;20181;-69
2023/02/19 04:44:04;;;;;;;0.90;0.70;;;;;;;13.45;59.63;97926.94;5000231;28;20222;-68
2023/02/19 04:46:29;;;;;;;1.00;0.90;;;;;;;13.43;59.26;97923.63;4999187;28;20180;-68
2023/02/19 04:48:55;;;;;;;0.90;0.70;;;;;;;13.46;58.92;97923.34;5002124;28;20219;-68
2023/02/19 04:51:20;;;;;;;0.90;0.80;;;;;;;13.43;59.23;97934.16;5001155;28;20287;-68
2023/02/19 04:53:46;;;;;;;1.10;0.70;;;;;;;13.40;59.18;97934.47;4999797;28;20189;-68
2023/02/19 04:56:14;;;;;;;0.90;0.60;;;;;;;13.46;59.31;97936.50;5003302;28;20263;-68
2023/02/19 04:58:40;;;;;;;0.90;0.70;;;;;;;13.45;59.42;97946.19;4995446;28;20196;-68
2023/02/19 05:01:06;;;;;;;1.30;0.50;;;;;;;13.45;59.25;97946.19;5004762;28;20558;-68
2023/02/19 05:03:33;;;;;;;2.40;0.70;;;;;;;13.49;59.34;97944.06;5001504;28;20455;-68
2023/02/19 05:06:02;;;;;;;0.90;0.70;;;;;;;13.50;59.03;97948.34;5002761;28;20441;-69
2023/02/19 05:08:28;;;;;;;2.03;0.70;;;;;;;13.55;58.85;97938.19;4996407;28;20505;-69
2023/02/19 05:10:57;;;;;;;0.90;0.70;;;;;;;13.59;58.71;97944.81;4992663;28;20424;-69
2023/02/19 05:13:23;;;;;;;0.80;0.50;;;;;;;13.61;58.47;97940.22;4994205;28;20255;-69
2023/02/19 05:16:03;;;;;;;1.17;0.60;;;;;;;13.64;58.30;97954.91;5002735;28;20928;-69
2023/02/19 05:18:29;;;;;;;0.80;0.50;;;;;;;13.65;58.06;97954.72;5000618;28;20216;-68
2023/02/19 05:20:56;;;;;;;1.30;0.60;;;;;;;13.61;58.20;97956.00;5000881;28;20547;-69
2023/02/19 05:23:21;;;;;;;1.00;0.60;;;;;;;13.62;58.31;97957.66;5002989;28;20459;-69
2023/02/19 05:25:47;;;;;;;1.40;0.57;;;;;;;13.63;58.32;97956.69;5009743;28;20835;-69
2023/02/19 05:28:16;;;;;;;0.93;0.50;;;;;;;13.67;57.99;97963.31;4990787;28;20235;-68
2023/02/19 05:30:43;;;;;;;0.80;0.50;;;;;;;13.65;58.04;97954.72;5004020;28;20417;-69
2023/02/19 05:33:08;;;;;;;0.80;0.40;;;;;;;13.66;58.09;97952.94;5002031;28;21116;-69
2023/02/19 05:35:46;;;;;;;0.80;0.50;;;;;;;13.64;57.86;97949.63;5001644;28;20505;-69
2023/02/19 05:38:12;;;;;;;0.80;0.50;;;;;;;13.59;57.90;97960.63;5003525;28;20252;-69
2023/02/19 05:40:37;;;;;;;0.80;0.50;;;;;;;13.60;58.17;97964.91;4986777;28;20542;-69
2023/02/19 05:43:03;;;;;;;0.77;0.50;;;;;;;13.61;57.68;97968.38;5005881;28;20439;-69
2023/02/19 05:45:29;;;;;;;0.73;0.40;;;;;;;13.63;57.69;97971.69;5004538;28;20176;-69
2023/02/19 05:47:54;;;;;;;0.80;0.50;;;;;;;13.62;57.61;97965.56;5007120;28;20205;-69
2023/02/19 05:50:19;;;;;;;0.80;0.50;;;;;;;13.63;57.60;97966.41;5002451;28;20853;-69
2023/02/19 05:52:45;;;;;;;0.90;0.40;;;;;;;13.64;57.25;97975.97;4991179;28;20503;-69
2023/02/19 05:55:11;;;;;;;0.80;0.40;;;;;;;13.59;56.85;97973.81;5004203;28;20252;-69
2023/02/19 05:57:44;;;;;;;0.80;0.40;;;;;;;13.60;56.94;97975.47;5003484;28;20211;-69
2023/02/19 06:00:14;;;;;;;0.80;0.40;;;;;;;13.63;56.95;97975.13;5001300;28;20223;-69
2023/02/19 06:02:40;;;;;;;0.80;0.40;;;;;;;13.60;57.00;97985.16;4987777;28;20432;-69
2023/02/19 06:05:06;;;;;;;0.80;0.50;;;;;;;13.55;57.04;97990.88;5005453;28;20434;-69
2023/02/19 06:07:31;;;;;;;1.00;0.50;;;;;;;13.61;57.13;97995.53;5003271;28;20280;-69
2023/02/19 06:09:57;;;;;;;1.10;0.50;;;;;;;13.59;57.02;97994.88;5002775;28;20211;-69
2023/02/19 06:12:22;;;;;;;0.80;0.50;;;;;;;13.60;57.16;98004.44;4986688;28;20184;-69
2023/02/19 06:14:48;;;;;;;0.70;0.40;;;;;;;13.54;57.32;98014.75;5008099;28;20523;-68
2023/02/19 06:17:14;;;;;;;0.80;0.50;;;;;;;13.54;57.35;98020.81;4999123;28;20276;-69
2023/02/19 06:19:39;;;;;;;0.70;0.40;;;;;;;13.51;57.83;98021.13;5001451;28;20197;-68
2023/02/19 06:22:05;;;;;;;0.80;0.50;;;;;;;13.49;57.79;98023.91;5001907;28;20188;-69
2023/02/19 06:24:30;;;;;;;1.23;0.53;;;;;;;13.58;58.25;98029.25;5001706;28;20723;-67
2023/02/19 06:26:56;;;;;;;0.70;0.40;;;;;;;13.51;57.24;98039.56;5006879;28;20235;-69
2023/02/19 06:29:21;;;;;;;0.90;0.40;;;;;;;13.60;57.92;98041.31;5003358;28;20258;-69
2023/02/19 06:31:47;;;;;;;0.80;0.50;;;;;;;13.55;56.76;98040.06;5000796;28;20263;-69
2023/02/19 06:34:12;;;;;;;2.10;0.50;;;;;;;13.59;56.48;98041.44;4996882;28;20580;-69
2023/02/19 06:36:37;;;;;;;0.80;0.47;;;;;;;13.56;56.69;98049.63;4996068;28;20176;-68
2023/02/19 06:39:03;;;;;;;1.63;0.50;;;;;;;13.50;56.95;98045.78;4998295;28;20680;-69
2023/02/19 06:41:29;;;;;;;1.27;0.70;;;;;;;13.45;57.28;98040.16;5002530;28;20267;-69
2023/02/19 06:43:56;;;;;;;0.90;0.60;;;;;;;13.31;55.70;98044.94;5001976;28;20800;-67
2023/02/19 06:46:22;;;;;;;2.10;0.80;;;;;;;13.32;55.42;98053.66;4999156;28;20181;-69
2023/02/19 06:48:47;;;;;;;0.90;0.70;;;;;;;13.20;54.71;98053.06;5003459;28;20463;-70
2023/02/19 06:51:17;;;;;;;0.80;0.50;;;;;;;13.28;55.11;98058.41;4994197;28;20280;-70
2023/02/19 06:53:43;;;;;;;1.00;0.60;;;;;;;13.29;55.06;98067.94;5001275;28;20185;-71
2023/02/19 06:56:33;;;;;;;0.90;0.70;;;;;;;13.40;54.59;98071.38;4992112;28;20945;-71
2023/02/19 06:59:02;;;;;;;0.90;0.60;;;;;;;13.43;54.02;98081.63;4992370;28;20213;-72
2023/02/19 07:01:29;;;;;;;0.90;0.60;;;;;;;13.43;53.55;98077.16;5003817;28;20650;-71
2023/02/19 07:03:54;;;;;;;0.80;0.50;;;;;;;13.45;53.11;98090.19;4999688;28;21030;-71
2023/02/19 07:06:20;;;;;;;1.30;0.70;;;;;;;13.48;52.63;98084.63;4996048;28;20512;-70
2023/02/19 07:08:46;;;;;;;0.90;0.60;;;;;;;13.47;53.23;98090.88;4991061;28;20866;-71
2023/02/19 07:11:11;;;;;;;1.83;0.70;;;;;;;13.42;52.77;98085.22;4988576;28;20425;-72
2023/02/19 07:13:37;;;;;;;1.00;0.70;;;;;;;13.35;53.12;98084.97;4994360;28;20726;-72
2023/02/19 07:16:07;;;;;;;1.00;0.83;;;;;;;13.35;52.86;98096.34;4992686;28;20196;-72
2023/02/19 07:18:33;;;;;;;0.90;0.63;;;;;;;13.34;53.30;98099.94;4990014;28;20664;-71
2023/02/19 07:21:03;;;;;;;1.30;0.90;;;;;;;13.32;53.48;98091.34;4994144;28;20511;-72
2023/02/19 07:23:28;;;;;;;1.10;1.00;;;;;;;13.37;53.07;98104.88;4986872;28;20477;-72
2023/02/19 07:25:53;;;;;;;1.00;0.80;;;;;;;13.35;52.84;98106.88;4991972;28;20511;-70
2023/02/19 07:28:19;;;;;;;1.00;0.70;;;;;;;13.33;53.17;98106.19;4994087;28;20564;-68
2023/02/19 07:30:44;;;;;;;1.20;0.80;;;;;;;13.23;52.86;98115.94;5002357;28;20250;-71
2023/02/19 07:33:10;;;;;;;2.37;1.07;;;;;;;13.25;53.17;98121.03;4998305;28;20205;-69
2023/02/19 07:35:35;;;;;;;1.03;0.80;;;;;;;13.25;53.15;98118.41;4996413;28;20180;-68
2023/02/19 07:38:01;;;;;;;1.40;0.77;;;;;;;13.24;53.38;98119.38;4983802;28;20206;-71
2023/02/19 07:40:26;;;;;;;0.90;0.70;;;;;;;13.31;52.86;98117.81;4994525;28;20922;-70
2023/02/19 07:42:52;;;;;;;1.00;0.80;;;;;;;13.30;52.97;98119.63;4994040;28;20768;-70
2023/02/19 07:45:17;;;;;;;0.90;0.70;;;;;;;13.28;53.12;98115.50;4992801;28;20185;-70
2023/02/19 07:47:43;;;;;;;1.30;0.97;;;;;;;13.16;52.57;98107.81;5007449;28;20204;-70
2023/02/19 07:50:08;;;;;;;1.00;0.90;;;;;;;12.96;52.51;98099.16;4994257;28;20267;-71
2023/02/19 07:52:34;;;;;;;1.17;1.07;;;;;;;12.90;52.54;98107.63;5001836;28;20271;-70
2023/02/19 07:54:59;;;;;;;1.00;0.90;;;;;;;12.97;52.28;98108.72;4999268;28;20231;-71
2023/02/19 07:57:27;;;;;;;1.20;1.03;;;;;;;12.97;52.17;98115.78;4993634;28;20264;-71
2023/02/19 07:59:52;;;;;;;4.40;0.90;;;;;;;12.94;52.26;98108.16;5000850;28;20199;-71
2023/02/19 08:05:05;;;;;;;1.30;1.20;;;;;;;13.06;52.23;98101.72;5003805;28;20180;-70
2023/02/19 08:07:34;;;;;;;1.30;1.20;;;;;;;13.19;52.48;98104.03;4997353;28;20419;-71
2023/02/19 08:15:27;;;;;;;1.70;1.10;;;;;;;13.23;51.66;98113.31;4997440;28;20445;-70
2023/02/19 08:17:52;;;;;;;1.30;1.20;;;;;;;13.29;51.45;98114.53;4996976;28;20420;-71
2023/02/19 08:20:18;;;;;;;1.70;1.40;;;;;;;13.26;51.67;98128.78;5004661;28;20283;-71
2023/02/19 08:22:44;;;;;;;1.93;1.10;;;;;;;13.30;51.35;98127.53;5000485;28;20209;-70
2023/02/19 08:25:09;;;;;;;1.20;1.10;;;;;;;13.33;51.08;98134.28;5004552;28;20184;-71
2023/02/19 08:27:35;;;;;;;1.40;1.30;;;;;;;13.31;51.25;98139.72;5003094;28;20443;-71
2023/02/19 08:30:00;;;;;;;1.23;1.13;;;;;;;13.27;51.38;98143.59;5004141;28;20292;-71
2023/02/19 08:32:26;;;;;;;1.30;1.00;;;;;;;13.25;51.51;98155.25;4995314;28;20289;-71
2023/02/19 08:34:51;;;;;;;1.60;0.90;;;;;;;13.09;52.85;98148.00;4997470;28;20544;-71
2023/02/19 08:37:16;;;;;;;1.87;1.10;;;;;;;13.12;53.22;98142.44;4986527;28;20276;-72
2023/02/19 08:39:42;;;;;;;1.13;1.00;;;;;;;13.18;53.27;98157.66;5001245;28;20229;-71
2023/02/19 08:42:07;;;;;;;1.00;0.90;;;;;;;13.24;53.40;98151.78;4995465;28;20240;-72
2023/02/19 08:44:33;;;;;;;1.53;0.80;;;;;;;13.22;53.17;98161.66;5001997;28;20652;-71
2023/02/19 08:46:58;;;;;;;1.30;1.00;;;;;;;13.14;53.26;98161.53;4998748;28;20208;-71
2023/02/19 08:49:26;;;;;;;1.00;0.90;;;;;;;13.21;53.30;98157.38;4995592;28;20209;-72
2023/02/19 08:51:51;;;;;;;1.73;1.17;;;;;;;13.34;53.26;98157.84;4988998;28;20196;-70
2023/02/19 08:54:17;;;;;;;1.03;0.93;;;;;;;13.35;52.76;98164.78;5003479;28;20441;-71
2023/02/19 08:56:42;;;;;;;1.40;1.30;;;;;;;13.41;52.84;98162.56;4994802;28;20613;-71
2023/02/19 08:59:08;;;;;;;1.07;0.97;;;;;;;13.40;52.68;98163.53;5006071;28;20258;-71
2023/02/19 09:01:33;;;;;;;1.77;1.10;;;;;;;13.34;52.73;98173.66;5003423;28;20184;-72
2023/02/19 09:03:59;;;;;;;1.73;0.93;;;;;;;13.39;52.62;98172.38;4992337;28;20292;-72
2023/02/19 09:06:24;;;;;;;1.20;0.90;;;;;;;13.37;52.63;98173.34;5003020;28;20630;-71
2023/02/19 09:08:50;;;;;;;1.93;1.03;;;;;;;13.36;52.51;98171.69;4992952;28;20642;-71
2023/02/19 09:11:15;;;;;;;1.10;1.00;;;;;;;13.40;52.12;98179.31;4993601;28;20189;-70
2023/02/19 09:13:41;;;;;;;1.93;1.00;;;;;;;13.41;52.03;98184.47;4998617;28;20184;-71
2023/02/19 09:16:07;;;;;;;1.00;0.90;;;;;;;13.39;51.39;98185.53;4976413;28;20712;-69
2023/02/19 09:18:32;;;;;;;1.27;1.17;;;;;;;13.32;51.27;98209.81;5001064;28;20455;-70
2023/02/19 09:21:03;;;;;;;2.07;1.20;;;;;;;13.35;50.82;98212.19;5001321;28;20178;-71
2023/02/19 09:23:29;;;;;;;2.00;1.00;;;;;;;13.32;50.94;98217.72;5001659;28;20227;-71
2023/02/19 09:25:59;;;;;;;2.80;1.00;;;;;;;13.40;50.71;98213.56;4979111;28;20426;-71
2023/02/19 09:28:25;;;;;;;1.20;0.90;;;;;;;13.44;50.49;98207.84;4996971;28;20448;-71
2023/02/19 09:30:50;;;;;;;3.50;1.10;;;;;;;13.43;50.34;98221.16;4994481;28;20427;-70
2023/02/19 09:33:15;;;;;;;2.80;1.30;;;;;;;13.43;49.89;98218.53;5003021;28;20181;-71
2023/02/19 09:35:41;;;;;;;4.33;1.40;;;;;;;13.19;49.44;98209.31;4998431;28;20176;-71
2023/02/19 09:38:09;;;;;;;5.87;1.10;;;;;;;13.37;49.94;98223.38;5002763;28;20734;-70
2023/02/19 09:40:35;;;;;;;8.43;1.10;;;;;;;13.47;49.15;98214.66;4993408;28;20358;-70
2023/02/19 09:43:01;;;;;;;2.90;1.03;;;;;;;13.52;49.52;98217.66;4976122;28;20420;-72
2023/02/19 09:45:27;;;;;;;12.03;1.27;;;;;;;13.53;48.74;98214.06;4987372;28;20529;-71
2023/02/19 09:47:54;;;;;;;2.60;1.20;;;;;;;13.49;48.59;98217.94;5002277;28;20521;-71
2023/02/19 09:50:23;;;;;;;2.20;1.40;;;;;;;13.57;48.51;98215.44;4986558;28;20728;-72
2023/02/19 09:53:01;;;;;;;1.97;1.20;;;;;;;13.60;48.16;98222.19;4976324;28;20911;-71
2023/02/19 09:55:33;;;;;;;2.63;1.20;;;;;;;13.62;47.79;98231.59;5001058;28;20427;-72
2023/02/19 09:58:01;;;;;;;1.93;0.90;;;;;;;13.65;47.56;98235.75;4995371;28;20416;-68
2023/02/19 10:00:30;;;;;;;2.53;1.10;;;;;;;13.56;47.53;98228.72;5002534;28;20540;-69
2023/02/19 10:03:10;;;;;;;2.33;1.20;;;;;;;13.55;47.34;98232.31;4998778;28;20429;-67
2023/02/19 10:05:35;;;;;;;1.70;0.90;;;;;;;13.62;47.34;98228.16;4969918;28;20419;-68
2023/02/19 10:08:04;;;;;;;1.50;1.20;;;;;;;13.70;47.43;98233.50;4977470;28;20836;-70
2023/02/19 10:10:32;;;;;;;1.80;1.10;;;;;;;13.67;47.10;98232.00;4996994;28;20255;-68
2023/02/19 10:13:12;;;;;;;4.03;1.00;;;;;;;13.68;47.04;98235.44;5001382;28;20485;-71
2023/02/19 10:15:44;;;;;;;5.43;1.37;;;;;;;13.60;47.15;98236.22;4975364;28;20431;-71
2023/02/19 10:18:10;;;;;;;1.50;1.00;;;;;;;13.79;47.10;98235.28;4959772;28;20437;-71
2023/02/19 10:20:36;;;;;;;3.93;0.87;;;;;;;13.68;47.54;98227.53;4988126;28;20504;-68
2023/02/19 10:23:06;;;;;;;3.97;0.90;;;;;;;13.77;47.52;98239.84;4998957;28;20185;-67
2023/02/19 10:25:33;;;;;;;6.67;1.20;;;;;;;13.29;48.99;98239.06;4996147;28;20184;-69
2023/02/19 10:27:59;;;;;;;5.00;1.20;;;;;;;13.41;48.90;98231.84;4963800;28;21018;-68
2023/02/19 10:30:29;;;;;;;6.73;0.97;;;;;;;13.61;49.07;98248.38;5011418;28;20519;-68
2023/02/19 10:33:14;;;;;;;3.07;1.27;;;;;;;13.65;48.52;98238.41;5004416;28;20424;-69
2023/02/19 10:35:55;;;;;;;3.40;1.10;;;;;;;13.52;48.88;98238.72;4995399;28;20428;-69
2023/02/19 10:38:24;;;;;;;2.40;1.13;;;;;;;13.78;48.54;98244.16;5000945;28;20415;-68
2023/02/19 10:40:57;;;;;;;2.77;1.20;;;;;;;13.82;48.16;98247.31;4980190;28;20437;-68
2023/02/19 10:43:30;;;;;;;4.97;1.20;;;;;;;13.68;48.40;98251.25;5006667;28;20543;-68
2023/02/19 10:45:56;;;;;;;5.27;1.27;;;;;;;13.87;47.81;98241.59;4959118;28;20559;-68
2023/02/19 10:48:24;;;;;;;4.37;1.10;;;;;;;13.75;48.10;98248.88;4984952;28;20452;-68
2023/02/19 10:50:54;;;;;;;1.83;1.30;;;;;;;13.77;48.11;98257.44;4991851;28;20441;-68
2023/02/19 10:53:24;;;;;;;3.87;1.40;;;;;;;13.56;48.13;98261.16;4983655;28;20515;-68
2023/02/19 10:56:14;;;;;;;3.67;1.40;;;;;;;13.76;47.97;98261.06;5002148;28;20475;-69
2023/02/19 10:58:43;;;;;;;6.40;1.43;;;;;;;13.70;47.78;98266.94;4985202;28;20905;-68
2023/02/19 11:01:24;;;;;;;6.17;1.90;;;;;;;13.56;47.98;98281.41;4981472;28;20500;-68
2023/02/19 11:04:16;;;;;;;2.97;1.20;;;;;;;13.86;47.35;98261.84;5005538;28;21107;-68
2023/02/19 11:06:42;;;;;;;2.97;1.37;;;;;;;13.73;46.89;98274.56;4997246;28;20470;-67
2023/02/19 11:09:23;;;;;;;1.63;1.30;;;;;;;13.92;46.68;98271.81;5004862;28;21026;-68
2023/02/19 11:11:51;;;;;;;2.60;1.17;;;;;;;14.01;46.35;98263.97;4969230;28;20177;-69
2023/02/19 11:14:22;;;;;;;6.40;1.40;;;;;;;14.06;46.56;98262.53;4990342;28;20424;-69
2023/02/19 11:16:56;;;;;;;1.57;0.90;;;;;;;14.10;46.20;98255.19;4966463;28;20435;-70
2023/02/19 11:19:33;;;;;;;3.80;1.27;;;;;;;14.20;46.25;98260.38;4999001;28;20460;-66
2023/02/19 11:21:59;;;;;;;3.63;1.17;;;;;;;14.09;46.03;98264.09;5012397;28;21091;-67
2023/02/19 11:24:34;;;;;;;4.27;1.20;;;;;;;14.10;45.99;98271.81;4992359;28;20966;-69
2023/02/19 11:27:02;;;;;;;4.00;1.33;;;;;;;14.14;45.70;98267.09;4993168;28;20439;-69
2023/02/19 11:29:33;;;;;;;2.47;1.20;;;;;;;14.25;45.56;98266.03;4983978;28;20575;-69
2023/02/19 11:32:28;;;;;;;6.47;1.23;;;;;;;14.33;45.31;98281.13;4980670;28;20434;-70
2023/02/19 11:35:13;;;;;;;2.70;1.20;;;;;;;14.32;45.25;98264.44;4978674;28;20975;-68
2023/02/19 11:37:56;;;;;;;3.13;1.10;;;;;;;14.37;44.96;98256.94;4985524;28;20424;-68
2023/02/19 11:40:29;;;;;;;2.70;1.07;;;;;;;14.42;45.27;98259.97;4976905;28;20444;-68
2023/02/19 11:43:06;;;;;;;5.83;1.47;;;;;;;14.34;45.30;98251.13;5009615;28;20424;-68
2023/02/19 11:45:43;;;;;;;2.53;1.27;;;;;;;14.37;45.49;98261.34;4993860;28;20438;-70
2023/02/19 11:48:31;;;;;;;4.80;1.10;;;;;;;14.29;45.34;98257.69;5009491;28;20480;-69
2023/02/19 11:51:18;;;;;;;2.03;1.20;;;;;;;14.33;45.50;98260.03;5000815;28;20432;-71
2023/02/19 11:53:58;;;;;;;1.97;1.00;;;;;;;14.24;46.00;98285.47;4978890;28;20407;-68
2023/02/19 11:56:32;;;;;;;8.57;1.40;;;;;;;14.17;46.24;98269.44;4992808;28;20495;-67
2023/02/19 11:59:15;;;;;;;3.87;1.13;;;;;;;14.27;45.92;98270.19;4986361;28;20818;-69
2023/02/19 12:02:06;;;;;;;2.83;1.20;;;;;;;14.39;45.78;98283.13;4990070;28;20423;-68
2023/02/19 12:04:47;;;;;;;2.37;1.10;;;;;;;14.46;45.71;98284.22;5008882;28;20416;-71
2023/02/19 12:07:41;;;;;;;5.00;1.10;;;;;;;14.39;45.76;98288.41;4988673;28;20424;-68
2023/02/19 12:10:27;;;;;;;1.80;1.10;;;;;;;14.45;45.45;98295.75;4992475;28;21005;-69
2023/02/19 12:13:20;;;;;;;1.53;0.90;;;;;;;14.47;44.95;98291.16;4988652;28;20481;-69
2023/02/19 12:16:02;;;;;;;1.50;1.10;;;;;;;14.41;44.93;98291.75;5005796;28;20942;-67